Terminal Aerodrome Forecast
Issued by NWS

Current Version | Previous Version | Text Only | Print | Product List | Glossary Off
Versions: 1 2 3 4 5 6 7 8 9 10 11 12 13 14 15 16 17 18 19 20 21 22 23 24 25

000
FTUS42 KILM 252300 CCA
TAFCRE
TAF COR
KCRE 252359Z 2600/2624 04011KT P6SM -RA OVC080
      TEMPO 2600/2603 4SM -RA OVC015
     FM260300 03018G22KT 3SM -RA BR OVC007
      TEMPO 2606/2610 1SM RA BR OVC003
     FM261300 02008KT 3SM BR VCSH OVC004
     FM261600 20009KT P6SM OVC025=

USA.gov is the U.S. government's official web portal to all federal, state and local government web resources and services.